sensor_id;sensor_type;location;lat;lon;timestamp;temperature;humidity
46816;DHT22;32787;53.316;8.670;2023-05-07T00:00:25;9.90;88.70
46816;DHT22;32787;53.316;8.670;2023-05-07T00:02:51;9.90;88.80
46816;DHT22;32787;53.316;8.670;2023-05-07T00:05:17;9.80;88.90
46816;DHT22;32787;53.316;8.670;2023-05-07T00:07:43;9.80;89.00
46816;DHT22;32787;53.316;8.670;2023-05-07T00:10:10;9.80;89.00
46816;DHT22;32787;53.316;8.670;2023-05-07T00:12:37;9.80;88.90
46816;DHT22;32787;53.316;8.670;2023-05-07T00:15:03;9.80;88.80
46816;DHT22;32787;53.316;8.670;2023-05-07T00:17:30;9.80;88.80
46816;DHT22;32787;53.316;8.670;2023-05-07T00:19:55;9.80;89.10
46816;DHT22;32787;53.316;8.670;2023-05-07T00:22:21;9.70;88.80
46816;DHT22;32787;53.316;8.670;2023-05-07T00:24:47;9.70;88.90
46816;DHT22;32787;53.316;8.670;2023-05-07T00:27:12;9.60;88.80
46816;DHT22;32787;53.316;8.670;2023-05-07T00:29:38;9.60;88.80
46816;DHT22;32787;53.316;8.670;2023-05-07T00:32:04;9.60;88.70
46816;DHT22;32787;53.316;8.670;2023-05-07T00:34:30;9.50;88.60
46816;DHT22;32787;53.316;8.670;2023-05-07T00:36:55;9.50;88.70
46816;DHT22;32787;53.316;8.670;2023-05-07T00:39:21;9.40;88.60
46816;DHT22;32787;53.316;8.670;2023-05-07T00:41:47;9.40;88.90
46816;DHT22;32787;53.316;8.670;2023-05-07T00:44:13;9.50;88.90
46816;DHT22;32787;53.316;8.670;2023-05-07T00:46:40;9.40;88.90
46816;DHT22;32787;53.316;8.670;2023-05-07T00:49:05;9.40;88.80
46816;DHT22;32787;53.316;8.670;2023-05-07T00:51:33;9.40;88.90
46816;DHT22;32787;53.316;8.670;2023-05-07T00:54:00;9.30;88.90
46816;DHT22;32787;53.316;8.670;2023-05-07T00:56:26;9.30;89.10
46816;DHT22;32787;53.316;8.670;2023-05-07T00:58:52;9.40;89.20
46816;DHT22;32787;53.316;8.670;2023-05-07T01:01:18;9.30;88.90
46816;DHT22;32787;53.316;8.670;2023-05-07T01:03:43;9.30;88.90
46816;DHT22;32787;53.316;8.670;2023-05-07T01:06:10;9.30;89.10
46816;DHT22;32787;53.316;8.670;2023-05-07T01:08:39;9.30;89.00
46816;DHT22;32787;53.316;8.670;2023-05-07T01:11:06;9.20;89.10
46816;DHT22;32787;53.316;8.670;2023-05-07T01:13:32;9.20;89.10
46816;DHT22;32787;53.316;8.670;2023-05-07T01:15:58;9.20;89.10
46816;DHT22;32787;53.316;8.670;2023-05-07T01:18:23;9.20;89.20
46816;DHT22;32787;53.316;8.670;2023-05-07T01:20:51;9.10;89.30
46816;DHT22;32787;53.316;8.670;2023-05-07T01:23:17;9.10;89.40
46816;DHT22;32787;53.316;8.670;2023-05-07T01:25:43;9.10;89.50
46816;DHT22;32787;53.316;8.670;2023-05-07T01:28:08;9.10;89.50
46816;DHT22;32787;53.316;8.670;2023-05-07T01:30:35;9.10;89.30
46816;DHT22;32787;53.316;8.670;2023-05-07T01:33:09;9.00;89.20
46816;DHT22;32787;53.316;8.670;2023-05-07T01:35:41;9.00;89.30
46816;DHT22;32787;53.316;8.670;2023-05-07T01:38:09;9.10;89.40
46816;DHT22;32787;53.316;8.670;2023-05-07T01:40:34;9.00;89.50
46816;DHT22;32787;53.316;8.670;2023-05-07T01:43:02;9.00;89.40
46816;DHT22;32787;53.316;8.670;2023-05-07T01:45:28;9.00;89.40
46816;DHT22;32787;53.316;8.670;2023-05-07T01:47:54;9.00;89.50
46816;DHT22;32787;53.316;8.670;2023-05-07T01:50:20;9.00;89.20
46816;DHT22;32787;53.316;8.670;2023-05-07T01:52:47;8.90;89.20
46816;DHT22;32787;53.316;8.670;2023-05-07T01:55:14;9.00;89.40
46816;DHT22;32787;53.316;8.670;2023-05-07T01:57:40;8.90;89.40
46816;DHT22;32787;53.316;8.670;2023-05-07T02:00:07;8.90;89.40
46816;DHT22;32787;53.316;8.670;2023-05-07T02:02:34;8.90;89.30
46816;DHT22;32787;53.316;8.670;2023-05-07T02:04:59;8.90;89.50
46816;DHT22;32787;53.316;8.670;2023-05-07T02:07:26;8.90;89.50
46816;DHT22;32787;53.316;8.670;2023-05-07T02:09:52;8.90;89.40
46816;DHT22;32787;53.316;8.670;2023-05-07T02:12:17;8.80;89.50
46816;DHT22;32787;53.316;8.670;2023-05-07T02:14:43;8.80;89.60
46816;DHT22;32787;53.316;8.670;2023-05-07T02:17:09;8.80;89.40
46816;DHT22;32787;53.316;8.670;2023-05-07T02:19:34;8.80;89.60
46816;DHT22;32787;53.316;8.670;2023-05-07T02:22:00;8.80;89.60
46816;DHT22;32787;53.316;8.670;2023-05-07T02:24:26;8.90;89.70
46816;DHT22;32787;53.316;8.670;2023-05-07T02:26:51;8.80;89.70
46816;DHT22;32787;53.316;8.670;2023-05-07T02:29:17;8.80;89.80
46816;DHT22;32787;53.316;8.670;2023-05-07T02:31:42;8.80;89.70
46816;DHT22;32787;53.316;8.670;2023-05-07T02:34:08;8.80;89.70
46816;DHT22;32787;53.316;8.670;2023-05-07T02:36:33;8.80;89.80
46816;DHT22;32787;53.316;8.670;2023-05-07T02:39:00;8.80;89.90
46816;DHT22;32787;53.316;8.670;2023-05-07T02:41:25;8.80;90.00
46816;DHT22;32787;53.316;8.670;2023-05-07T02:43:51;8.80;89.90
46816;DHT22;32787;53.316;8.670;2023-05-07T02:46:16;8.80;90.00
46816;DHT22;32787;53.316;8.670;2023-05-07T02:48:42;8.80;90.00
46816;DHT22;32787;53.316;8.670;2023-05-07T02:51:08;8.80;90.00
46816;DHT22;32787;53.316;8.670;2023-05-07T02:53:33;8.80;90.20
46816;DHT22;32787;53.316;8.670;2023-05-07T02:56:00;8.70;90.20
46816;DHT22;32787;53.316;8.670;2023-05-07T02:58:26;8.70;90.00
46816;DHT22;32787;53.316;8.670;2023-05-07T03:00:53;8.70;90.00
46816;DHT22;32787;53.316;8.670;2023-05-07T03:03:20;8.70;90.10
46816;DHT22;32787;53.316;8.670;2023-05-07T03:05:46;8.70;90.00
46816;DHT22;32787;53.316;8.670;2023-05-07T03:08:11;8.70;89.90
46816;DHT22;32787;53.316;8.670;2023-05-07T03:10:37;8.70;90.00
46816;DHT22;32787;53.316;8.670;2023-05-07T03:13:03;8.60;90.00
46816;DHT22;32787;53.316;8.670;2023-05-07T03:15:29;8.60;89.90
46816;DHT22;32787;53.316;8.670;2023-05-07T03:17:55;8.70;90.00
46816;DHT22;32787;53.316;8.670;2023-05-07T03:20:20;8.70;90.10
46816;DHT22;32787;53.316;8.670;2023-05-07T03:22:46;8.80;89.90
46816;DHT22;32787;53.316;8.670;2023-05-07T03:25:12;8.80;90.00
46816;DHT22;32787;53.316;8.670;2023-05-07T03:27:38;8.80;90.00
46816;DHT22;32787;53.316;8.670;2023-05-07T03:30:04;8.70;89.90
46816;DHT22;32787;53.316;8.670;2023-05-07T03:32:29;8.70;90.10
46816;DHT22;32787;53.316;8.670;2023-05-07T03:34:55;8.80;90.20
46816;DHT22;32787;53.316;8.670;2023-05-07T03:37:21;8.70;90.00
46816;DHT22;32787;53.316;8.670;2023-05-07T03:39:47;8.70;90.00
46816;DHT22;32787;53.316;8.670;2023-05-07T03:42:12;8.70;90.00
46816;DHT22;32787;53.316;8.670;2023-05-07T03:44:38;8.80;90.00
46816;DHT22;32787;53.316;8.670;2023-05-07T03:47:04;8.70;89.90
46816;DHT22;32787;53.316;8.670;2023-05-07T03:49:30;8.70;89.90
46816;DHT22;32787;53.316;8.670;2023-05-07T03:51:55;8.70;89.90
46816;DHT22;32787;53.316;8.670;2023-05-07T03:54:22;8.70;89.80
46816;DHT22;32787;53.316;8.670;2023-05-07T03:56:47;8.70;90.00
46816;DHT22;32787;53.316;8.670;2023-05-07T03:59:13;8.80;90.00
46816;DHT22;32787;53.316;8.670;2023-05-07T04:01:39;8.80;89.90
46816;DHT22;32787;53.316;8.670;2023-05-07T04:04:04;8.70;89.90
46816;DHT22;32787;53.316;8.670;2023-05-07T04:06:30;8.80;89.70
46816;DHT22;32787;53.316;8.670;2023-05-07T04:08:56;8.80;89.90
46816;DHT22;32787;53.316;8.670;2023-05-07T04:11:22;8.80;89.80
46816;DHT22;32787;53.316;8.670;2023-05-07T04:13:48;8.70;89.50
46816;DHT22;32787;53.316;8.670;2023-05-07T04:16:13;8.70;89.50
46816;DHT22;32787;53.316;8.670;2023-05-07T04:18:39;8.80;89.30
46816;DHT22;32787;53.316;8.670;2023-05-07T04:21:05;8.80;89.20
46816;DHT22;32787;53.316;8.670;2023-05-07T04:23:31;8.80;89.10
46816;DHT22;32787;53.316;8.670;2023-05-07T04:25:56;8.70;89.10
46816;DHT22;32787;53.316;8.670;2023-05-07T04:28:23;8.70;89.20
46816;DHT22;32787;53.316;8.670;2023-05-07T04:30:48;8.70;89.30
46816;DHT22;32787;53.316;8.670;2023-05-07T04:33:14;8.80;89.10
46816;DHT22;32787;53.316;8.670;2023-05-07T04:35:43;8.80;89.10
46816;DHT22;32787;53.316;8.670;2023-05-07T04:38:09;8.70;89.00
46816;DHT22;32787;53.316;8.670;2023-05-07T04:40:36;8.80;89.00
46816;DHT22;32787;53.316;8.670;2023-05-07T04:43:01;8.80;89.00
46816;DHT22;32787;53.316;8.670;2023-05-07T04:45:27;8.80;88.90
46816;DHT22;32787;53.316;8.670;2023-05-07T04:47:52;8.90;88.80
46816;DHT22;32787;53.316;8.670;2023-05-07T04:50:18;8.80;88.80
46816;DHT22;32787;53.316;8.670;2023-05-07T04:52:45;8.80;88.90
46816;DHT22;32787;53.316;8.670;2023-05-07T04:55:11;8.90;89.00
46816;DHT22;32787;53.316;8.670;2023-05-07T04:57:36;8.80;89.00
46816;DHT22;32787;53.316;8.670;2023-05-07T05:00:04;8.80;88.90
46816;DHT22;32787;53.316;8.670;2023-05-07T05:02:30;8.80;89.10
46816;DHT22;32787;53.316;8.670;2023-05-07T05:04:55;8.90;89.20
46816;DHT22;32787;53.316;8.670;2023-05-07T05:07:21;8.90;88.80
46816;DHT22;32787;53.316;8.670;2023-05-07T05:09:46;8.90;88.90
46816;DHT22;32787;53.316;8.670;2023-05-07T05:12:12;9.00;88.80
46816;DHT22;32787;53.316;8.670;2023-05-07T05:14:37;8.90;88.50
46816;DHT22;32787;53.316;8.670;2023-05-07T05:17:03;8.90;88.60
46816;DHT22;32787;53.316;8.670;2023-05-07T05:19:29;8.90;88.50
46816;DHT22;32787;53.316;8.670;2023-05-07T05:21:54;8.90;88.40
46816;DHT22;32787;53.316;8.670;2023-05-07T05:24:20;8.90;88.30
46816;DHT22;32787;53.316;8.670;2023-05-07T05:26:46;8.90;88.10
46816;DHT22;32787;53.316;8.670;2023-05-07T05:29:11;8.90;88.20
46816;DHT22;32787;53.316;8.670;2023-05-07T05:31:37;9.00;88.40
46816;DHT22;32787;53.316;8.670;2023-05-07T05:34:03;9.00;88.40
46816;DHT22;32787;53.316;8.670;2023-05-07T05:36:29;9.00;88.20
46816;DHT22;32787;53.316;8.670;2023-05-07T05:38:55;9.00;88.50
46816;DHT22;32787;53.316;8.670;2023-05-07T05:41:21;9.00;88.40
46816;DHT22;32787;53.316;8.670;2023-05-07T05:43:47;9.00;88.30
46816;DHT22;32787;53.316;8.670;2023-05-07T05:46:12;9.00;88.20
46816;DHT22;32787;53.316;8.670;2023-05-07T05:48:38;9.00;88.00
46816;DHT22;32787;53.316;8.670;2023-05-07T05:51:03;9.10;88.00
46816;DHT22;32787;53.316;8.670;2023-05-07T05:53:29;9.10;88.30
46816;DHT22;32787;53.316;8.670;2023-05-07T05:55:55;9.10;87.60
46816;DHT22;32787;53.316;8.670;2023-05-07T05:58:20;9.20;87.60
46816;DHT22;32787;53.316;8.670;2023-05-07T06:00:46;9.20;87.50
46816;DHT22;32787;53.316;8.670;2023-05-07T06:03:13;9.20;87.50
46816;DHT22;32787;53.316;8.670;2023-05-07T06:05:39;9.30;87.30
46816;DHT22;32787;53.316;8.670;2023-05-07T06:08:05;9.20;87.20
46816;DHT22;32787;53.316;8.670;2023-05-07T06:10:30;9.30;87.20
46816;DHT22;32787;53.316;8.670;2023-05-07T06:12:56;9.40;87.50
46816;DHT22;32787;53.316;8.670;2023-05-07T06:15:22;9.40;87.20
46816;DHT22;32787;53.316;8.670;2023-05-07T06:17:47;9.40;87.20
46816;DHT22;32787;53.316;8.670;2023-05-07T06:20:14;9.40;87.10
46816;DHT22;32787;53.316;8.670;2023-05-07T06:22:40;9.40;87.20
46816;DHT22;32787;53.316;8.670;2023-05-07T06:25:06;9.40;87.30
46816;DHT22;32787;53.316;8.670;2023-05-07T06:27:31;9.50;87.00
46816;DHT22;32787;53.316;8.670;2023-05-07T06:29:57;9.40;87.00
46816;DHT22;32787;53.316;8.670;2023-05-07T06:32:23;9.50;86.90
46816;DHT22;32787;53.316;8.670;2023-05-07T06:34:48;9.50;86.30
46816;DHT22;32787;53.316;8.670;2023-05-07T06:37:14;9.50;86.40
46816;DHT22;32787;53.316;8.670;2023-05-07T06:39:39;9.50;86.40
46816;DHT22;32787;53.316;8.670;2023-05-07T06:42:05;9.50;86.20
46816;DHT22;32787;53.316;8.670;2023-05-07T06:44:31;9.50;86.60
46816;DHT22;32787;53.316;8.670;2023-05-07T06:46:57;9.60;86.30
46816;DHT22;32787;53.316;8.670;2023-05-07T06:49:22;9.60;86.50
46816;DHT22;32787;53.316;8.670;2023-05-07T06:51:48;9.70;86.30
46816;DHT22;32787;53.316;8.670;2023-05-07T06:54:14;9.60;86.00
46816;DHT22;32787;53.316;8.670;2023-05-07T06:56:39;9.50;85.60
46816;DHT22;32787;53.316;8.670;2023-05-07T06:59:06;9.60;86.10
46816;DHT22;32787;53.316;8.670;2023-05-07T07:01:32;9.70;86.10
46816;DHT22;32787;53.316;8.670;2023-05-07T07:03:57;9.80;85.60
46816;DHT22;32787;53.316;8.670;2023-05-07T07:06:23;9.90;85.00
46816;DHT22;32787;53.316;8.670;2023-05-07T07:08:49;9.90;85.20
46816;DHT22;32787;53.316;8.670;2023-05-07T07:11:15;9.90;84.50
46816;DHT22;32787;53.316;8.670;2023-05-07T07:13:41;9.90;84.60
46816;DHT22;32787;53.316;8.670;2023-05-07T07:16:06;10.00;84.80
46816;DHT22;32787;53.316;8.670;2023-05-07T07:18:32;10.00;84.40
46816;DHT22;32787;53.316;8.670;2023-05-07T07:20:58;9.90;84.50
46816;DHT22;32787;53.316;8.670;2023-05-07T07:23:24;9.90;84.60
46816;DHT22;32787;53.316;8.670;2023-05-07T07:25:50;9.90;84.50
46816;DHT22;32787;53.316;8.670;2023-05-07T07:28:16;9.90;84.60
46816;DHT22;32787;53.316;8.670;2023-05-07T07:30:42;9.90;84.40
46816;DHT22;32787;53.316;8.670;2023-05-07T07:33:07;9.90;84.70
46816;DHT22;32787;53.316;8.670;2023-05-07T07:35:33;10.00;84.70
46816;DHT22;32787;53.316;8.670;2023-05-07T07:37:59;10.10;84.50
46816;DHT22;32787;53.316;8.670;2023-05-07T07:40:24;10.10;84.40
46816;DHT22;32787;53.316;8.670;2023-05-07T07:42:51;10.10;84.60
46816;DHT22;32787;53.316;8.670;2023-05-07T07:45:17;10.10;84.40
46816;DHT22;32787;53.316;8.670;2023-05-07T07:47:42;10.10;84.50
46816;DHT22;32787;53.316;8.670;2023-05-07T07:50:09;10.20;84.50
46816;DHT22;32787;53.316;8.670;2023-05-07T07:52:34;10.30;84.70
46816;DHT22;32787;53.316;8.670;2023-05-07T07:55:00;10.30;84.30
46816;DHT22;32787;53.316;8.670;2023-05-07T07:57:26;10.30;83.90
46816;DHT22;32787;53.316;8.670;2023-05-07T07:59:51;10.20;84.30
46816;DHT22;32787;53.316;8.670;2023-05-07T08:02:17;10.30;83.80
46816;DHT22;32787;53.316;8.670;2023-05-07T08:04:43;10.30;83.50
46816;DHT22;32787;53.316;8.670;2023-05-07T08:07:12;10.40;83.40
46816;DHT22;32787;53.316;8.670;2023-05-07T08:09:39;10.40;83.60
46816;DHT22;32787;53.316;8.670;2023-05-07T08:12:05;10.40;83.60
46816;DHT22;32787;53.316;8.670;2023-05-07T08:14:31;10.70;83.60
46816;DHT22;32787;53.316;8.670;2023-05-07T08:16:57;10.70;82.80
46816;DHT22;32787;53.316;8.670;2023-05-07T08:19:23;10.60;82.80
46816;DHT22;32787;53.316;8.670;2023-05-07T08:21:48;10.60;83.20
46816;DHT22;32787;53.316;8.670;2023-05-07T08:24:15;10.70;82.90
46816;DHT22;32787;53.316;8.670;2023-05-07T08:26:41;10.50;82.60
46816;DHT22;32787;53.316;8.670;2023-05-07T08:29:07;10.50;82.80
46816;DHT22;32787;53.316;8.670;2023-05-07T08:31:32;10.40;82.90
46816;DHT22;32787;53.316;8.670;2023-05-07T08:33:58;10.60;82.90
46816;DHT22;32787;53.316;8.670;2023-05-07T08:36:25;10.60;82.80
46816;DHT22;32787;53.316;8.670;2023-05-07T08:38:54;10.60;82.50
46816;DHT22;32787;53.316;8.670;2023-05-07T08:41:20;10.60;82.80
46816;DHT22;32787;53.316;8.670;2023-05-07T08:43:48;10.60;82.80
46816;DHT22;32787;53.316;8.670;2023-05-07T08:46:20;10.70;82.90
46816;DHT22;32787;53.316;8.670;2023-05-07T08:48:50;10.80;82.90
46816;DHT22;32787;53.316;8.670;2023-05-07T08:51:18;10.80;82.70
46816;DHT22;32787;53.316;8.670;2023-05-07T08:53:45;10.80;82.50
46816;DHT22;32787;53.316;8.670;2023-05-07T08:56:11;10.80;82.60
46816;DHT22;32787;53.316;8.670;2023-05-07T08:58:38;10.80;82.70
46816;DHT22;32787;53.316;8.670;2023-05-07T09:01:08;10.90;82.70
46816;DHT22;32787;53.316;8.670;2023-05-07T09:03:36;10.90;82.60
46816;DHT22;32787;53.316;8.670;2023-05-07T09:06:02;10.90;82.90
46816;DHT22;32787;53.316;8.670;2023-05-07T09:08:28;10.90;82.20
46816;DHT22;32787;53.316;8.670;2023-05-07T09:10:53;10.90;82.80
46816;DHT22;32787;53.316;8.670;2023-05-07T09:13:19;11.10;82.20
46816;DHT22;32787;53.316;8.670;2023-05-07T09:15:45;11.20;82.40
46816;DHT22;32787;53.316;8.670;2023-05-07T09:18:12;11.20;82.00
46816;DHT22;32787;53.316;8.670;2023-05-07T09:20:38;11.30;81.80
46816;DHT22;32787;53.316;8.670;2023-05-07T09:23:04;11.30;81.80
46816;DHT22;32787;53.316;8.670;2023-05-07T09:25:31;11.30;81.50
46816;DHT22;32787;53.316;8.670;2023-05-07T09:27:59;11.20;82.30
46816;DHT22;32787;53.316;8.670;2023-05-07T09:30:31;11.30;81.20
46816;DHT22;32787;53.316;8.670;2023-05-07T09:33:02;11.30;81.90
46816;DHT22;32787;53.316;8.670;2023-05-07T09:35:29;11.30;81.00
46816;DHT22;32787;53.316;8.670;2023-05-07T09:38:00;11.30;81.70
46816;DHT22;32787;53.316;8.670;2023-05-07T09:40:28;11.30;82.30
46816;DHT22;32787;53.316;8.670;2023-05-07T09:42:54;11.20;81.20
46816;DHT22;32787;53.316;8.670;2023-05-07T09:45:29;11.10;81.90
46816;DHT22;32787;53.316;8.670;2023-05-07T09:47:56;11.20;82.40
46816;DHT22;32787;53.316;8.670;2023-05-07T09:50:32;11.30;82.60
46816;DHT22;32787;53.316;8.670;2023-05-07T09:53:01;11.40;81.90
46816;DHT22;32787;53.316;8.670;2023-05-07T09:55:28;11.50;82.00
46816;DHT22;32787;53.316;8.670;2023-05-07T09:57:55;11.60;82.40
46816;DHT22;32787;53.316;8.670;2023-05-07T10:00:21;11.70;82.40
46816;DHT22;32787;53.316;8.670;2023-05-07T10:02:49;11.80;81.60
46816;DHT22;32787;53.316;8.670;2023-05-07T10:05:18;11.80;81.10
46816;DHT22;32787;53.316;8.670;2023-05-07T10:07:45;11.70;81.50
46816;DHT22;32787;53.316;8.670;2023-05-07T10:10:11;11.80;81.80
46816;DHT22;32787;53.316;8.670;2023-05-07T10:12:38;11.90;82.20
46816;DHT22;32787;53.316;8.670;2023-05-07T10:15:07;12.20;82.10
46816;DHT22;32787;53.316;8.670;2023-05-07T10:17:37;12.40;82.50
46816;DHT22;32787;53.316;8.670;2023-05-07T10:20:04;12.30;79.70
46816;DHT22;32787;53.316;8.670;2023-05-07T10:22:38;12.40;81.00
46816;DHT22;32787;53.316;8.670;2023-05-07T10:25:09;12.60;79.40
46816;DHT22;32787;53.316;8.670;2023-05-07T10:27:40;12.50;78.40
46816;DHT22;32787;53.316;8.670;2023-05-07T10:30:40;12.30;78.50
46816;DHT22;32787;53.316;8.670;2023-05-07T10:33:11;12.50;78.60
46816;DHT22;32787;53.316;8.670;2023-05-07T10:35:41;12.20;78.90
46816;DHT22;32787;53.316;8.670;2023-05-07T10:38:08;12.30;79.50
46816;DHT22;32787;53.316;8.670;2023-05-07T10:40:34;12.40;78.90
46816;DHT22;32787;53.316;8.670;2023-05-07T10:43:02;12.20;79.60
46816;DHT22;32787;53.316;8.670;2023-05-07T10:45:30;12.30;79.10
46816;DHT22;32787;53.316;8.670;2023-05-07T10:48:06;12.20;79.10
46816;DHT22;32787;53.316;8.670;2023-05-07T10:50:33;12.40;79.60
46816;DHT22;32787;53.316;8.670;2023-05-07T10:55:50;12.30;79.10
46816;DHT22;32787;53.316;8.670;2023-05-07T10:58:24;12.40;79.30
46816;DHT22;32787;53.316;8.670;2023-05-07T11:00:59;12.60;79.50
46816;DHT22;32787;53.316;8.670;2023-05-07T11:03:26;12.60;79.00
46816;DHT22;32787;53.316;8.670;2023-05-07T11:06:12;12.40;78.40
46816;DHT22;32787;53.316;8.670;2023-05-07T11:08:57;12.50;78.30
46816;DHT22;32787;53.316;8.670;2023-05-07T11:11:43;12.40;79.20
46816;DHT22;32787;53.316;8.670;2023-05-07T11:14:09;12.50;78.60
46816;DHT22;32787;53.316;8.670;2023-05-07T11:16:35;12.50;79.30
46816;DHT22;32787;53.316;8.670;2023-05-07T11:19:02;12.70;80.20
46816;DHT22;32787;53.316;8.670;2023-05-07T11:21:37;12.80;78.60
46816;DHT22;32787;53.316;8.670;2023-05-07T11:24:04;12.80;78.90
46816;DHT22;32787;53.316;8.670;2023-05-07T11:26:41;13.00;78.20
46816;DHT22;32787;53.316;8.670;2023-05-07T11:29:15;13.00;77.40
46816;DHT22;32787;53.316;8.670;2023-05-07T11:31:41;13.10;77.90
46816;DHT22;32787;53.316;8.670;2023-05-07T11:34:07;13.30;77.50
46816;DHT22;32787;53.316;8.670;2023-05-07T11:36:33;13.50;76.70
46816;DHT22;32787;53.316;8.670;2023-05-07T11:38:59;13.50;77.00
46816;DHT22;32787;53.316;8.670;2023-05-07T11:41:35;13.60;74.70
46816;DHT22;32787;53.316;8.670;2023-05-07T11:44:02;13.60;75.60
46816;DHT22;32787;53.316;8.670;2023-05-07T11:46:28;13.70;75.50
46816;DHT22;32787;53.316;8.670;2023-05-07T11:48:54;13.60;75.20
46816;DHT22;32787;53.316;8.670;2023-05-07T11:51:22;13.40;75.00
46816;DHT22;32787;53.316;8.670;2023-05-07T11:53:48;13.40;75.50
46816;DHT22;32787;53.316;8.670;2023-05-07T11:56:16;13.60;75.10
46816;DHT22;32787;53.316;8.670;2023-05-07T11:58:42;13.60;75.30
46816;DHT22;32787;53.316;8.670;2023-05-07T12:01:09;13.80;74.60
46816;DHT22;32787;53.316;8.670;2023-05-07T12:03:36;14.10;74.00
46816;DHT22;32787;53.316;8.670;2023-05-07T12:06:08;14.10;73.00
46816;DHT22;32787;53.316;8.670;2023-05-07T12:08:37;14.30;73.50
46816;DHT22;32787;53.316;8.670;2023-05-07T12:11:03;14.40;73.90
46816;DHT22;32787;53.316;8.670;2023-05-07T12:13:32;14.70;72.50
46816;DHT22;32787;53.316;8.670;2023-05-07T12:15:57;15.00;71.90
46816;DHT22;32787;53.316;8.670;2023-05-07T12:18:23;14.90;71.20
46816;DHT22;32787;53.316;8.670;2023-05-07T12:20:50;14.80;72.50
46816;DHT22;32787;53.316;8.670;2023-05-07T12:23:16;14.80;71.60
46816;DHT22;32787;53.316;8.670;2023-05-07T12:25:43;14.80;71.40
46816;DHT22;32787;53.316;8.670;2023-05-07T12:28:19;14.70;72.60
46816;DHT22;32787;53.316;8.670;2023-05-07T12:30:46;14.70;73.10
46816;DHT22;32787;53.316;8.670;2023-05-07T12:33:15;14.60;71.80
46816;DHT22;32787;53.316;8.670;2023-05-07T12:35:42;14.80;72.20
46816;DHT22;32787;53.316;8.670;2023-05-07T12:38:13;14.90;71.60
46816;DHT22;32787;53.316;8.670;2023-05-07T12:40:47;14.80;70.50
46816;DHT22;32787;53.316;8.670;2023-05-07T12:43:19;14.80;71.80
46816;DHT22;32787;53.316;8.670;2023-05-07T12:45:47;14.80;71.50
46816;DHT22;32787;53.316;8.670;2023-05-07T12:48:13;14.80;71.80
46816;DHT22;32787;53.316;8.670;2023-05-07T12:50:39;14.90;70.60
46816;DHT22;32787;53.316;8.670;2023-05-07T12:53:07;15.10;71.70
46816;DHT22;32787;53.316;8.670;2023-05-07T12:55:45;15.00;70.70
46816;DHT22;32787;53.316;8.670;2023-05-07T12:58:19;15.20;71.40
46816;DHT22;32787;53.316;8.670;2023-05-07T13:00:48;15.20;71.00
46816;DHT22;32787;53.316;8.670;2023-05-07T13:03:27;15.00;70.10
46816;DHT22;32787;53.316;8.670;2023-05-07T13:05:58;15.00;71.80
46816;DHT22;32787;53.316;8.670;2023-05-07T13:11:02;15.00;70.70
46816;DHT22;32787;53.316;8.670;2023-05-07T13:13:30;15.30;70.20
46816;DHT22;32787;53.316;8.670;2023-05-07T13:15:56;15.40;68.90
46816;DHT22;32787;53.316;8.670;2023-05-07T13:18:21;15.50;69.70
46816;DHT22;32787;53.316;8.670;2023-05-07T13:20:47;15.80;68.80
46816;DHT22;32787;53.316;8.670;2023-05-07T13:23:13;16.30;68.80
46816;DHT22;32787;53.316;8.670;2023-05-07T13:25:38;16.10;67.20
46816;DHT22;32787;53.316;8.670;2023-05-07T13:28:04;16.20;67.80
46816;DHT22;32787;53.316;8.670;2023-05-07T13:30:30;16.20;67.80
46816;DHT22;32787;53.316;8.670;2023-05-07T13:32:56;16.60;66.00
46816;DHT22;32787;53.316;8.670;2023-05-07T13:35:21;16.20;66.80
46816;DHT22;32787;53.316;8.670;2023-05-07T13:37:47;16.30;66.60
46816;DHT22;32787;53.316;8.670;2023-05-07T13:40:17;16.50;66.50
46816;DHT22;32787;53.316;8.670;2023-05-07T13:42:43;16.80;66.20
46816;DHT22;32787;53.316;8.670;2023-05-07T13:45:09;17.20;64.80
46816;DHT22;32787;53.316;8.670;2023-05-07T13:47:34;17.00;63.40
46816;DHT22;32787;53.316;8.670;2023-05-07T13:50:00;17.60;62.00
46816;DHT22;32787;53.316;8.670;2023-05-07T13:52:26;18.40;59.40
46816;DHT22;32787;53.316;8.670;2023-05-07T13:54:51;17.90;60.20
46816;DHT22;32787;53.316;8.670;2023-05-07T13:57:18;17.50;60.60
46816;DHT22;32787;53.316;8.670;2023-05-07T13:59:43;17.50;61.40
46816;DHT22;32787;53.316;8.670;2023-05-07T14:02:09;17.50;62.40
46816;DHT22;32787;53.316;8.670;2023-05-07T14:04:35;18.30;60.20
46816;DHT22;32787;53.316;8.670;2023-05-07T14:07:01;18.70;58.10
46816;DHT22;32787;53.316;8.670;2023-05-07T14:09:26;18.10;60.10
46816;DHT22;32787;53.316;8.670;2023-05-07T14:11:52;18.00;61.10
46816;DHT22;32787;53.316;8.670;2023-05-07T14:14:18;18.10;59.80
46816;DHT22;32787;53.316;8.670;2023-05-07T14:16:44;18.40;59.60
46816;DHT22;32787;53.316;8.670;2023-05-07T14:19:13;18.30;58.20
46816;DHT22;32787;53.316;8.670;2023-05-07T14:21:39;17.80;61.10
46816;DHT22;32787;53.316;8.670;2023-05-07T14:24:06;18.30;60.30
46816;DHT22;32787;53.316;8.670;2023-05-07T14:26:33;18.40;59.40
46816;DHT22;32787;53.316;8.670;2023-05-07T14:28:58;17.80;61.10
46816;DHT22;32787;53.316;8.670;2023-05-07T14:31:25;17.40;63.50
46816;DHT22;32787;53.316;8.670;2023-05-07T14:33:50;17.20;62.70
46816;DHT22;32787;53.316;8.670;2023-05-07T14:36:17;17.70;62.40
46816;DHT22;32787;53.316;8.670;2023-05-07T14:38:46;18.10;58.40
46816;DHT22;32787;53.316;8.670;2023-05-07T14:41:11;18.80;59.10
46816;DHT22;32787;53.316;8.670;2023-05-07T14:43:37;18.70;58.30
46816;DHT22;32787;53.316;8.670;2023-05-07T14:46:03;19.20;55.60
46816;DHT22;32787;53.316;8.670;2023-05-07T14:48:28;18.80;58.20
46816;DHT22;32787;53.316;8.670;2023-05-07T14:50:54;18.70;58.80
46816;DHT22;32787;53.316;8.670;2023-05-07T14:53:20;17.70;60.80
46816;DHT22;32787;53.316;8.670;2023-05-07T14:55:46;17.10;62.10
46816;DHT22;32787;53.316;8.670;2023-05-07T14:58:12;16.70;63.80
46816;DHT22;32787;53.316;8.670;2023-05-07T15:00:38;16.40;64.50
46816;DHT22;32787;53.316;8.670;2023-05-07T15:03:08;16.20;66.10
46816;DHT22;32787;53.316;8.670;2023-05-07T15:05:34;16.30;66.70
46816;DHT22;32787;53.316;8.670;2023-05-07T15:08:00;16.60;66.40
46816;DHT22;32787;53.316;8.670;2023-05-07T15:10:26;16.50;66.00
46816;DHT22;32787;53.316;8.670;2023-05-07T15:12:51;16.50;66.60
46816;DHT22;32787;53.316;8.670;2023-05-07T15:15:17;16.70;65.20
46816;DHT22;32787;53.316;8.670;2023-05-07T15:17:43;16.40;67.00
46816;DHT22;32787;53.316;8.670;2023-05-07T15:20:09;16.50;66.60
46816;DHT22;32787;53.316;8.670;2023-05-07T15:22:35;17.10;66.40
46816;DHT22;32787;53.316;8.670;2023-05-07T15:25:03;16.70;63.70
46816;DHT22;32787;53.316;8.670;2023-05-07T15:27:29;17.80;62.80
46816;DHT22;32787;53.316;8.670;2023-05-07T15:29:56;18.40;60.30
46816;DHT22;32787;53.316;8.670;2023-05-07T15:32:21;18.80;57.80
46816;DHT22;32787;53.316;8.670;2023-05-07T15:34:47;19.10;58.20
46816;DHT22;32787;53.316;8.670;2023-05-07T15:37:12;19.20;56.50
46816;DHT22;32787;53.316;8.670;2023-05-07T15:39:38;19.10;57.10